createdAt,value
2018-02-21T00:00:37.765Z,28.27
2018-02-21T00:03:06.813Z,38.23
2018-02-21T00:05:35.088Z,32.33
2018-02-21T00:08:03.340Z,31.57
2018-02-21T00:10:39.298Z,36.43
2018-02-21T00:13:07.570Z,32.43
2018-02-21T00:15:36.616Z,33.20
2018-02-21T00:18:04.875Z,34.10
2018-02-21T00:20:33.170Z,34.50
2018-02-21T00:23:01.473Z,36.03
2018-02-21T00:25:29.789Z,38.87
2018-02-21T00:27:58.061Z,30.47
2018-02-21T00:30:26.332Z,35.17
2018-02-21T00:32:54.601Z,36.83
2018-02-21T00:35:23.644Z,38.60
2018-02-21T00:37:51.897Z,34.10
2018-02-21T00:40:20.942Z,39.47
2018-02-21T00:42:49.198Z,27.93
2018-02-21T00:45:18.982Z,30.67
2018-02-21T00:47:47.235Z,40.33
2018-02-21T00:50:15.552Z,32.07
2018-02-21T00:52:43.873Z,29.53
2018-02-21T00:55:12.280Z,39.67
2018-02-21T00:57:40.857Z,33.37
2018-02-21T01:00:09.135Z,34.67
2018-02-21T01:02:37.392Z,34.93
2018-02-21T01:05:06.440Z,34.03
2018-02-21T01:07:34.704Z,40.33
2018-02-21T01:10:02.984Z,29.90
2018-02-21T01:12:31.249Z,28.60
2018-02-21T01:14:59.528Z,31.53
2018-02-21T01:17:27.795Z,29.10
2018-02-21T01:19:56.823Z,27.57
2018-02-21T01:22:25.753Z,34.23
2018-02-21T01:24:54.003Z,32.77
2018-02-21T01:27:22.279Z,30.80
2018-02-21T01:29:51.311Z,32.17
2018-02-21T01:32:19.592Z,30.17
2018-02-21T01:34:47.859Z,30.23
2018-02-21T01:37:16.147Z,29.03
2018-02-21T01:39:44.433Z,30.53
2018-02-21T01:42:12.776Z,29.37
2018-02-21T01:44:41.076Z,30.93
2018-02-21T01:47:09.351Z,29.23
2018-02-21T01:49:37.624Z,35.70
2018-02-21T01:52:05.903Z,33.43
2018-02-21T01:54:34.927Z,37.67
2018-02-21T01:57:03.199Z,31.87
2018-02-21T01:59:32.224Z,31.73
2018-02-21T02:02:00.551Z,30.83
2018-02-21T02:04:28.820Z,29.83
2018-02-21T02:06:57.094Z,32.30
2018-02-21T02:09:25.350Z,34.33
2018-02-21T02:11:54.378Z,33.90
2018-02-21T02:14:22.644Z,29.87
2018-02-21T02:16:51.695Z,35.13
2018-02-21T02:19:19.963Z,32.47
2018-02-21T02:21:48.251Z,30.00
2018-02-21T02:24:16.536Z,32.37
2018-02-21T02:26:45.585Z,33.23
2018-02-21T02:29:13.860Z,39.30
2018-02-21T02:31:42.152Z,33.20
2018-02-21T02:34:10.470Z,35.20
2018-02-21T02:36:39.540Z,37.00
2018-02-21T02:42:16.432Z,29.13
2018-02-21T02:44:44.767Z,35.73
2018-02-21T02:47:13.875Z,32.40
2018-02-21T02:49:42.176Z,34.67
2018-02-21T02:52:10.512Z,29.30
2018-02-21T02:54:38.801Z,28.43
2018-02-21T02:57:07.856Z,39.17
2018-02-21T02:59:36.119Z,34.50
2018-02-21T03:02:04.396Z,34.10
2018-02-21T03:04:33.428Z,34.13
2018-02-21T03:07:01.712Z,35.97
2018-02-21T03:09:29.993Z,31.57
2018-02-21T03:11:58.264Z,29.37
2018-02-21T03:14:27.283Z,37.60
2018-02-21T03:16:55.590Z,31.70
2018-02-21T03:19:23.862Z,37.23
2018-02-21T03:21:52.154Z,31.90
2018-02-21T03:24:20.421Z,32.73
2018-02-21T03:26:48.696Z,30.77
2018-02-21T03:29:16.985Z,37.90
2018-02-21T03:31:45.309Z,33.43
2018-02-21T03:34:14.384Z,38.07
2018-02-21T03:36:42.699Z,32.57
2018-02-21T03:39:12.503Z,36.20
2018-02-21T03:41:40.789Z,25.80
2018-02-21T03:44:09.048Z,40.37
2018-02-21T03:46:37.320Z,37.80
2018-02-21T03:49:05.578Z,34.30
2018-02-21T03:51:34.603Z,38.73
2018-02-21T03:54:02.875Z,44.43
2018-02-21T03:56:31.906Z,36.87
2018-02-21T03:59:00.199Z,37.27
2018-02-21T04:01:28.471Z,31.10
2018-02-21T04:03:56.753Z,44.70
2018-02-21T04:06:25.775Z,38.60
2018-02-21T04:08:54.047Z,34.73
2018-02-21T04:11:23.077Z,40.30
2018-02-21T04:13:51.354Z,35.90
2018-02-21T04:16:19.618Z,39.47
2018-02-21T04:18:47.893Z,35.47
2018-02-21T04:21:16.184Z,37.17
2018-02-21T04:23:44.513Z,33.50
2018-02-21T04:26:12.924Z,38.33
2018-02-21T04:28:41.210Z,36.67
2018-02-21T04:31:09.482Z,41.63
2018-02-21T04:33:37.748Z,34.07
2018-02-21T04:36:06.783Z,34.20
2018-02-21T04:38:35.056Z,37.57
2018-02-21T04:41:03.332Z,34.50
2018-02-21T04:43:32.373Z,41.20
2018-02-21T04:46:00.646Z,42.93
2018-02-21T04:48:28.926Z,35.20
2018-02-21T04:50:57.947Z,40.67
2018-02-21T04:53:26.221Z,41.73
2018-02-21T04:59:10.428Z,36.33
2018-02-21T05:01:38.690Z,36.40
2018-02-21T05:04:06.972Z,28.40
2018-02-21T05:06:35.228Z,34.90
2018-02-21T05:09:03.501Z,37.23
2018-02-21T05:11:31.777Z,37.47
2018-02-21T05:14:00.107Z,39.40
2018-02-21T05:16:28.376Z,38.93
2018-02-21T05:18:56.647Z,29.37
2018-02-21T05:21:24.906Z,34.03
2018-02-21T05:23:53.192Z,34.67
2018-02-21T05:26:21.464Z,38.57
2018-02-21T05:28:49.739Z,33.50
2018-02-21T05:31:18.002Z,34.60
2018-02-21T05:33:46.290Z,32.70
2018-02-21T05:36:14.611Z,30.17
2018-02-21T05:38:42.989Z,33.57
2018-02-21T05:41:11.308Z,29.20
2018-02-21T05:43:39.586Z,33.80
2018-02-21T05:46:08.757Z,32.97
2018-02-21T05:48:37.133Z,28.83
2018-02-21T05:51:06.481Z,28.63
2018-02-21T05:53:34.904Z,33.00
2018-02-21T05:56:03.186Z,31.13
2018-02-21T05:58:31.688Z,34.43
2018-02-21T06:01:00.051Z,34.07
2018-02-21T06:03:28.348Z,30.13
2018-02-21T06:05:56.960Z,33.53
2018-02-21T06:08:25.508Z,30.27
2018-02-21T06:10:53.770Z,46.13
2018-02-21T06:13:22.075Z,45.23
2018-02-21T06:15:51.758Z,36.80
2018-02-21T06:18:20.796Z,33.77
2018-02-21T06:20:50.148Z,36.07
2018-02-21T06:23:18.449Z,42.33
2018-02-21T06:25:46.961Z,37.60
2018-02-21T06:28:16.011Z,39.13
2018-02-21T06:30:45.208Z,35.10
2018-02-21T06:33:14.304Z,39.27
2018-02-21T06:35:42.671Z,38.10
2018-02-21T06:38:11.695Z,38.97
2018-02-21T06:40:39.987Z,37.80
2018-02-21T06:43:08.256Z,37.37
2018-02-21T06:45:36.530Z,44.67
2018-02-21T06:48:04.775Z,38.77
2018-02-21T06:50:33.824Z,36.10
2018-02-21T06:53:02.097Z,40.60
2018-02-21T06:55:31.134Z,29.00
2018-02-21T06:57:59.400Z,42.20
2018-02-21T07:00:27.706Z,38.23
2018-02-21T07:02:55.972Z,50.00
2018-02-21T07:05:24.239Z,45.93
2018-02-21T07:07:53.277Z,44.23
2018-02-21T07:10:21.558Z,60.07
2018-02-21T07:12:49.855Z,46.43
2018-02-21T07:15:18.948Z,53.63
2018-02-21T07:17:47.191Z,52.53
2018-02-21T07:20:15.469Z,45.07
2018-02-21T07:22:43.732Z,57.30
2018-02-21T07:25:12.003Z,41.37
2018-02-21T07:27:40.269Z,58.60
2018-02-21T07:30:08.538Z,44.60
2018-02-21T07:32:36.799Z,30.63
2018-02-21T07:35:05.085Z,55.57
2018-02-21T07:37:33.435Z,52.90
2018-02-21T07:40:02.491Z,57.27
2018-02-21T07:42:30.748Z,48.23
2018-02-21T07:44:59.027Z,52.20
2018-02-21T07:47:27.299Z,51.43
2018-02-21T07:49:56.351Z,54.30
2018-02-21T07:52:24.619Z,51.60
2018-02-21T07:54:52.908Z,55.17
2018-02-21T07:57:21.212Z,55.30
2018-02-21T07:59:49.474Z,43.70
2018-02-21T08:02:18.504Z,51.13
2018-02-21T08:04:46.780Z,43.20
2018-02-21T08:07:15.057Z,53.83
2018-02-21T08:09:44.106Z,46.40
2018-02-21T08:12:12.372Z,46.67
2018-02-21T08:14:40.662Z,50.27
2018-02-21T08:17:08.987Z,44.33
2018-02-21T08:19:37.268Z,48.97
2018-02-21T08:22:05.527Z,49.40
2018-02-21T08:24:33.803Z,50.00
2018-02-21T08:27:02.836Z,43.80
2018-02-21T08:29:31.108Z,58.93
2018-02-21T08:31:59.370Z,48.03
2018-02-21T08:34:27.668Z,54.37
2018-02-21T08:36:56.820Z,49.83
2018-02-21T08:39:25.475Z,43.30
2018-02-21T08:41:54.540Z,46.63
2018-02-21T08:44:23.891Z,61.60
2018-02-21T08:46:52.336Z,44.40
2018-02-21T08:49:21.127Z,51.33
2018-02-21T08:51:49.614Z,53.30
2018-02-21T08:54:17.960Z,49.60
2018-02-21T08:56:46.341Z,48.53
2018-02-21T08:59:14.724Z,51.03
2018-02-21T09:01:43.216Z,53.00
2018-02-21T09:04:11.502Z,44.93
2018-02-21T09:06:40.104Z,49.10
2018-02-21T09:09:08.415Z,42.80
2018-02-21T09:11:37.039Z,44.23
2018-02-21T09:14:06.277Z,50.07
2018-02-21T09:16:34.633Z,55.17
2018-02-21T09:19:03.822Z,45.73
2018-02-21T09:21:32.484Z,49.40
2018-02-21T09:24:01.013Z,47.67
2018-02-21T09:26:30.427Z,48.33
2018-02-21T09:28:59.219Z,53.30
2018-02-21T09:31:27.505Z,50.97
2018-02-21T09:33:56.834Z,43.23
2018-02-21T09:36:25.228Z,42.23
2018-02-21T09:38:53.553Z,52.70
2018-02-21T09:41:22.104Z,50.90
2018-02-21T09:43:50.364Z,45.43
2018-02-21T09:46:18.663Z,46.67
2018-02-21T09:48:47.084Z,44.33
2018-02-21T09:51:15.953Z,46.43
2018-02-21T09:53:44.424Z,43.37
2018-02-21T09:56:13.000Z,53.50
2018-02-21T09:58:42.064Z,44.77
2018-02-21T10:01:10.426Z,52.40
2018-02-21T10:03:38.805Z,53.10
2018-02-21T10:06:07.304Z,50.67
2018-02-21T10:08:35.579Z,46.93
2018-02-21T10:11:04.818Z,51.17
2018-02-21T10:13:33.320Z,55.10
2018-02-21T10:16:01.768Z,48.73
2018-02-21T10:18:31.072Z,41.23
2018-02-21T10:20:59.367Z,56.67
2018-02-21T10:23:28.863Z,52.13
2018-02-21T10:25:57.235Z,49.03
2018-02-21T10:31:08.634Z,52.73
2018-02-21T10:33:37.168Z,43.67
2018-02-21T10:36:05.639Z,42.00
2018-02-21T10:38:34.757Z,43.03
2018-02-21T10:41:03.028Z,42.33
2018-02-21T10:43:31.531Z,40.17
2018-02-21T10:45:59.974Z,52.33
2018-02-21T10:48:29.002Z,42.30
2018-02-21T10:50:57.372Z,42.10
2018-02-21T10:53:26.469Z,39.63
2018-02-21T10:55:54.883Z,51.23
2018-02-21T10:58:23.938Z,55.37
2018-02-21T11:00:57.787Z,55.27
2018-02-21T11:03:26.122Z,56.57
2018-02-21T11:05:54.436Z,46.37
2018-02-21T11:08:22.749Z,52.30
2018-02-21T11:10:51.097Z,52.50
2018-02-21T11:13:19.613Z,52.03
2018-02-21T11:15:47.918Z,58.33
2018-02-21T11:18:16.196Z,57.07
2018-02-21T11:20:44.678Z,52.87
2018-02-21T11:23:13.194Z,50.50
2018-02-21T11:25:41.513Z,55.87
2018-02-21T11:28:10.564Z,48.47
2018-02-21T11:30:39.254Z,47.67
2018-02-21T11:33:07.765Z,51.53
2018-02-21T11:35:36.326Z,41.67
2018-02-21T11:38:06.074Z,49.67
2018-02-21T11:40:34.485Z,44.37
2018-02-21T11:43:02.778Z,47.37
2018-02-21T11:45:31.049Z,55.07
2018-02-21T11:47:59.451Z,48.70
2018-02-21T11:50:27.732Z,44.77
2018-02-21T11:52:56.012Z,50.97
2018-02-21T11:55:24.432Z,50.30
2018-02-21T11:57:52.825Z,52.30
2018-02-21T12:00:21.357Z,50.97
2018-02-21T12:02:50.563Z,54.50
2018-02-21T12:05:19.804Z,44.77
2018-02-21T12:07:48.254Z,41.90
2018-02-21T12:10:16.836Z,42.43
2018-02-21T12:12:45.191Z,40.77
2018-02-21T12:15:13.791Z,44.87
2018-02-21T12:17:42.099Z,43.33
2018-02-21T12:20:10.435Z,39.67
2018-02-21T12:22:39.637Z,43.20
2018-02-21T12:25:07.995Z,44.57
2018-02-21T12:27:36.385Z,41.97
2018-02-21T12:30:04.928Z,42.97
2018-02-21T12:32:45.893Z,47.67
2018-02-21T12:35:14.346Z,50.27
2018-02-21T12:37:42.890Z,51.67
2018-02-21T12:40:17.667Z,44.30
2018-02-21T12:42:46.064Z,48.13
2018-02-21T12:45:15.216Z,44.80
2018-02-21T12:47:43.855Z,45.93
2018-02-21T12:50:12.201Z,51.03
2018-02-21T12:52:41.171Z,41.27
2018-02-21T12:55:09.439Z,47.10
2018-02-21T12:57:38.478Z,45.27
2018-02-21T13:00:06.725Z,42.07
2018-02-21T13:02:35.756Z,42.70
2018-02-21T13:05:04.008Z,36.63
2018-02-21T13:07:32.326Z,35.97
2018-02-21T13:10:00.568Z,37.97
2018-02-21T13:12:28.847Z,32.27
2018-02-21T13:14:57.101Z,32.77
2018-02-21T13:17:25.383Z,32.57
2018-02-21T13:19:53.635Z,40.03
2018-02-21T13:22:21.899Z,38.73
2018-02-21T13:24:50.150Z,33.70
2018-02-21T13:27:18.495Z,41.20
2018-02-21T13:29:46.781Z,39.53
2018-02-21T13:32:15.073Z,38.43
2018-02-21T13:34:43.353Z,38.20
2018-02-21T13:37:11.633Z,29.67
2018-02-21T13:39:40.040Z,33.63
2018-02-21T13:42:08.316Z,31.90
2018-02-21T13:44:36.594Z,33.37
2018-02-21T13:47:05.234Z,29.73
2018-02-21T13:49:33.575Z,37.93
2018-02-21T13:52:01.973Z,39.10
2018-02-21T13:54:30.404Z,44.07
2018-02-21T13:56:59.301Z,47.57
2018-02-21T13:59:27.805Z,41.33
2018-02-21T14:01:56.481Z,45.03
2018-02-21T14:04:24.980Z,44.13
2018-02-21T14:06:53.305Z,47.47
2018-02-21T14:09:22.359Z,38.63
2018-02-21T14:11:50.748Z,41.83
2018-02-21T14:14:19.022Z,39.43
2018-02-21T14:16:47.287Z,35.23
2018-02-21T14:19:16.763Z,39.27
2018-02-21T14:21:45.560Z,40.90
2018-02-21T14:24:13.853Z,37.87
2018-02-21T14:26:42.196Z,33.70
2018-02-21T14:29:10.577Z,39.50
2018-02-21T14:31:39.961Z,41.57
2018-02-21T14:34:08.300Z,37.37
2018-02-21T14:36:36.930Z,38.00
2018-02-21T14:39:05.265Z,37.57
2018-02-21T14:41:34.331Z,44.33
2018-02-21T14:44:02.760Z,36.50
2018-02-21T14:46:31.838Z,37.37
2018-02-21T14:49:00.916Z,36.30
2018-02-21T14:51:29.237Z,36.67
2018-02-21T14:53:57.572Z,37.10
2018-02-21T14:56:25.848Z,34.97
2018-02-21T14:58:55.356Z,37.30
2018-02-21T15:01:24.700Z,38.00
2018-02-21T15:03:53.405Z,38.30
2018-02-21T15:06:21.961Z,36.87
2018-02-21T15:08:50.443Z,37.93
2018-02-21T15:11:18.726Z,38.20
2018-02-21T15:13:47.141Z,38.70
2018-02-21T15:16:20.998Z,38.97
2018-02-21T15:18:49.332Z,31.50
2018-02-21T15:21:17.647Z,34.70
2018-02-21T15:23:46.693Z,37.60
2018-02-21T15:26:14.972Z,33.70
2018-02-21T15:28:43.272Z,33.03
2018-02-21T15:31:11.612Z,36.73
2018-02-21T15:33:39.924Z,32.73
2018-02-21T15:36:08.945Z,37.80
2018-02-21T15:38:37.266Z,37.23
2018-02-21T15:41:05.465Z,41.37
2018-02-21T15:43:33.723Z,34.93
2018-02-21T15:46:02.000Z,34.87
2018-02-21T15:48:30.277Z,37.87
2018-02-21T15:50:58.572Z,35.20
2018-02-21T15:53:26.843Z,35.87
2018-02-21T15:55:55.887Z,27.60
2018-02-21T15:58:24.169Z,38.43
2018-02-21T16:00:52.456Z,31.80
2018-02-21T16:03:20.781Z,37.87
2018-02-21T16:05:49.185Z,30.47
2018-02-21T16:08:17.771Z,32.87
2018-02-21T16:10:46.301Z,33.17
2018-02-21T16:13:15.539Z,39.37
2018-02-21T16:15:43.976Z,34.80
2018-02-21T16:18:12.301Z,32.40
2018-02-21T16:20:41.432Z,30.67
2018-02-21T16:23:09.689Z,30.90
2018-02-21T16:25:38.822Z,32.63
2018-02-21T16:28:07.077Z,35.07
2018-02-21T16:30:35.400Z,32.40
2018-02-21T16:33:03.656Z,31.30
2018-02-21T16:35:32.020Z,38.73
2018-02-21T16:38:00.272Z,27.63
2018-02-21T16:40:28.652Z,35.37
2018-02-21T16:42:57.264Z,34.87
2018-02-21T16:45:25.616Z,36.30
2018-02-21T16:47:53.875Z,33.37
2018-02-21T16:50:23.261Z,30.93
2018-02-21T16:52:52.102Z,29.97
2018-02-21T16:55:20.459Z,31.80
2018-02-21T16:57:48.719Z,34.47
2018-02-21T17:00:17.812Z,31.13
2018-02-21T17:02:54.544Z,28.30
2018-02-21T17:05:22.902Z,31.00
2018-02-21T17:07:52.048Z,30.87
2018-02-21T17:10:20.357Z,33.07
2018-02-21T17:12:48.778Z,29.53
2018-02-21T17:15:17.323Z,32.80
2018-02-21T17:17:45.840Z,33.80
2018-02-21T17:20:14.208Z,31.53
2018-02-21T17:22:42.530Z,30.23
2018-02-21T17:25:10.981Z,34.87
2018-02-21T17:27:39.250Z,26.90
2018-02-21T17:30:08.410Z,31.77
2018-02-21T17:32:36.738Z,32.93
2018-02-21T17:35:05.628Z,30.27
2018-02-21T17:37:33.890Z,33.37
2018-02-21T17:40:02.164Z,29.97
2018-02-21T17:42:30.468Z,31.73
2018-02-21T17:44:58.782Z,36.67
2018-02-21T17:47:27.501Z,30.17
2018-02-21T17:49:55.884Z,27.13
2018-02-21T17:52:24.221Z,32.03
2018-02-21T17:54:52.628Z,31.70
2018-02-21T17:57:21.135Z,28.90
2018-02-21T17:59:49.467Z,27.27
2018-02-21T18:02:18.710Z,28.67
2018-02-21T18:04:47.027Z,28.60
2018-02-21T18:07:15.325Z,32.07
2018-02-21T18:09:43.913Z,30.67
2018-02-21T18:12:12.239Z,27.07
2018-02-21T18:14:41.574Z,23.17
2018-02-21T18:17:09.862Z,38.00
2018-02-21T18:19:39.851Z,30.10
2018-02-21T18:22:08.223Z,27.97
2018-02-21T18:24:36.794Z,31.23
2018-02-21T18:27:05.232Z,23.73
2018-02-21T18:29:34.223Z,28.43
2018-02-21T18:32:02.521Z,29.93
2018-02-21T18:34:30.865Z,32.60
2018-02-21T18:36:59.474Z,31.80
2018-02-21T18:39:27.819Z,26.00
2018-02-21T18:41:56.329Z,29.77
2018-02-21T18:44:25.708Z,26.47
2018-02-21T18:46:54.027Z,24.60
2018-02-21T18:49:22.301Z,23.50
2018-02-21T18:51:51.345Z,22.40
2018-02-21T18:54:19.768Z,23.87
2018-02-21T18:56:48.066Z,26.07
2018-02-21T18:59:16.326Z,21.43
2018-02-21T19:01:44.594Z,28.07
2018-02-21T19:04:12.872Z,21.53
2018-02-21T19:06:41.936Z,26.07
2018-02-21T19:09:10.216Z,25.53
2018-02-21T19:11:38.495Z,25.00
2018-02-21T19:14:06.756Z,26.37
2018-02-21T19:16:35.796Z,28.73
2018-02-21T19:19:04.059Z,25.07
2018-02-21T19:21:32.343Z,28.13
2018-02-21T19:24:01.371Z,28.40
2018-02-21T19:26:29.693Z,20.63
2018-02-21T19:28:57.945Z,21.80
2018-02-21T19:31:26.226Z,18.67
2018-02-21T19:33:54.566Z,21.87
2018-02-21T19:36:24.246Z,21.90
2018-02-21T19:38:52.692Z,23.80
2018-02-21T19:41:21.167Z,21.70
2018-02-21T19:43:49.890Z,23.73
2018-02-21T19:46:18.197Z,18.77
2018-02-21T19:48:47.478Z,20.37
2018-02-21T19:51:15.771Z,23.40
2018-02-21T19:53:44.066Z,27.83
2018-02-21T19:56:13.137Z,26.07
2018-02-21T19:58:41.420Z,18.07
2018-02-21T20:01:09.724Z,19.03
2018-02-21T20:03:37.975Z,23.53
2018-02-21T20:06:07.019Z,29.40
2018-02-21T20:08:36.261Z,25.80
2018-02-21T20:11:04.665Z,20.43
2018-02-21T20:13:33.028Z,24.27
2018-02-21T20:16:01.568Z,21.17
2018-02-21T20:18:30.830Z,25.80
2018-02-21T20:20:59.100Z,26.23
2018-02-21T20:23:27.472Z,27.43
2018-02-21T20:25:55.897Z,23.53
2018-02-21T20:28:24.362Z,25.00
2018-02-21T20:30:52.690Z,22.73
2018-02-21T20:33:21.161Z,21.47
2018-02-21T20:35:49.607Z,20.13
2018-02-21T20:38:18.196Z,18.67
2018-02-21T20:40:46.629Z,26.90
2018-02-21T20:43:15.147Z,22.27
2018-02-21T20:45:43.568Z,21.47
2018-02-21T20:48:12.122Z,17.63
2018-02-21T20:50:40.554Z,21.17
2018-02-21T20:53:09.110Z,23.43
2018-02-21T20:55:37.556Z,20.47
2018-02-21T20:58:05.884Z,23.10
2018-02-21T21:00:34.315Z,20.40
2018-02-21T21:03:02.689Z,20.90
2018-02-21T21:05:30.960Z,19.07
2018-02-21T21:07:59.277Z,26.60
2018-02-21T21:10:27.581Z,24.27
2018-02-21T21:12:56.239Z,29.40
2018-02-21T21:15:24.639Z,25.20
2018-02-21T21:17:53.044Z,23.07
2018-02-21T21:20:21.605Z,20.47
2018-02-21T21:22:50.751Z,21.70
2018-02-21T21:25:19.071Z,28.23
2018-02-21T21:27:47.444Z,24.10
2018-02-21T21:30:16.584Z,29.23
2018-02-21T21:32:44.972Z,27.17
2018-02-21T21:35:13.356Z,27.43
2018-02-21T21:37:41.770Z,24.30
2018-02-21T21:40:11.025Z,22.97
2018-02-21T21:42:39.353Z,31.20
2018-02-21T21:45:07.640Z,28.50
2018-02-21T21:47:35.977Z,26.60
2018-02-21T21:50:04.322Z,23.07
2018-02-21T21:52:32.568Z,22.17
2018-02-21T21:55:00.860Z,21.67
2018-02-21T21:57:29.434Z,24.23
2018-02-21T21:59:57.783Z,23.37
2018-02-21T22:02:26.404Z,19.03
2018-02-21T22:04:55.712Z,25.13
2018-02-21T22:07:25.096Z,21.50
2018-02-21T22:09:53.511Z,20.33
2018-02-21T22:12:22.051Z,30.17
2018-02-21T22:14:50.568Z,23.37
2018-02-21T22:17:18.871Z,23.23
2018-02-21T22:19:47.322Z,25.13
2018-02-21T22:22:15.636Z,19.77
2018-02-21T22:24:43.947Z,20.00
2018-02-21T22:27:12.285Z,24.70
2018-02-21T22:29:40.601Z,26.80
2018-02-21T22:32:09.069Z,23.80
2018-02-21T22:34:37.770Z,26.87
2018-02-21T22:37:06.134Z,25.57
2018-02-21T22:39:34.527Z,28.83
2018-02-21T22:42:03.688Z,28.80
2018-02-21T22:44:32.205Z,22.07
2018-02-21T22:47:00.881Z,31.70
2018-02-21T22:49:29.441Z,23.23
2018-02-21T22:51:58.785Z,19.13
2018-02-21T22:54:27.708Z,29.17
2018-02-21T22:56:56.495Z,19.20
2018-02-21T22:59:25.105Z,25.53
2018-02-21T23:01:53.575Z,25.53
2018-02-21T23:04:22.102Z,21.57
2018-02-21T23:06:50.560Z,30.23
2018-02-21T23:09:19.167Z,21.53
2018-02-21T23:11:47.642Z,21.00
2018-02-21T23:14:16.420Z,24.10
2018-02-21T23:16:44.676Z,21.67
2018-02-21T23:19:12.968Z,26.53
2018-02-21T23:21:41.224Z,28.47
2018-02-21T23:24:09.540Z,20.47
2018-02-21T23:26:37.808Z,27.77
2018-02-21T23:29:06.114Z,21.50
2018-02-21T23:31:34.369Z,26.53
2018-02-21T23:34:02.645Z,25.70
2018-02-21T23:36:31.693Z,25.40
2018-02-21T23:38:59.975Z,31.33
2018-02-21T23:41:28.268Z,29.63
2018-02-21T23:43:56.586Z,24.93
2018-02-21T23:46:24.874Z,24.93
2018-02-21T23:48:53.167Z,25.67
2018-02-21T23:51:21.608Z,24.50
2018-02-21T23:53:49.917Z,21.83
2018-02-21T23:56:18.169Z,20.17
2018-02-21T23:58:47.214Z,24.27
